Warren South, PA

7:09 AM EST on December 07, 2016 (GMT -0500)
| | Change Station
Active Advisory: Lake Effect Snow Watch

Elev -9999 ft 0.00 °N, 0.00 °E | Updated

Cloudy
Cloudy
32 °F
Feels Like 24 °F
N
10
Wind Variable Wind from WSW
Gusts mph

Today
High -- | Low -- °F
--% Chance of Precip.
Yesterday
High -- | Low -- °F
Precip. -- in
Pressure 29.91 in
Visibility 10.0 miles
Clouds Few 2200 ft
Scattered Clouds 2800 ft
Overcast 3600 ft
Windchill 24 °F
Dew Point 26 °F
Humidity 77%
Rainfall --
Snow Depth Not available.
7:30 AM 4:45 PM
First Quarter, 52% visible
METAR KJHW 071155Z AUTO 25008KT 10SM FEW022 SCT028 OVC036 01/M03 A2991 RMK AO1 70006 10030 20010 52024
Pressure 29.91 in
Visibility 10.0 miles
Clouds Few 2200 ft
Scattered Clouds 2800 ft
Overcast 3600 ft
Windchill 24 °F
Dew Point 26 °F
Humidity 77%
Rainfall --
Snow Depth Not available.
7:30 AM 4:45 PM
First Quarter, 52% visible
METAR KJHW 071155Z AUTO 25008KT 10SM FEW022 SCT028 OVC036 01/M03 A2991 RMK AO1 70006 10030 20010 52024

10-Day Weather Forecast

Almanac

Astronomy

Dec. 07, 2016 Rise Set
Actual Time
Civil Twilight
Nautical Twilight
Astronomical Twilight
Moon
Length of Visible Light
Length of Day
Tomorrow will be .
, % of the Moon is Illuminated

Today's Extremes

State Highs State Lows

Community

WunderPhotos

Upload Photos

1,956,111 photos uploaded!

WunderBlog® & News

Nearby

Air Quality

  Air Quality AQ Index Pollutant
Not available.

Snow Depth

Station Depth Elevation

Earthquake Activity

City Distance Mag. Time & Date
Minimum magnitude displayed is 2.5.

Coastal Water Temperatures

Place Temperature

Stations

Nearby Weather Stations

Station Location Temp. Windchill Dew Point Humidity Wind Precip. Elev Updated Type
                   

Watches & Warnings

Lake Effect Snow Watch
Issued: 5:49 AM EST Dec. 7, 2016 – National Weather Service

... Lake effect snow watch remains in effect from Thursday
afternoon through Saturday morning...

* locations... Warren and McKean counties.

* Accumulations... over 6 inches possible, especially over
northwest Warren County.

* Timing... the heaviest snow is expected to fall Thursday night
through Friday night.

* Impacts... poor driving conditions are expected. If possible,
avoid travel Thursday night through Saturday morning.

* Winds... west 10 to 15 mph with gusts up to 30 mph.

Precautionary/preparedness actions...

Review winter weather safety and preparedness information at
weather.Gov/winter.